createdAt,value
2016-10-18T00:00:35.868Z,27.03
2016-10-18T00:01:49.444Z,27.13
2016-10-18T00:03:03.094Z,27.02
2016-10-18T00:04:16.359Z,27.03
2016-10-18T00:05:29.917Z,27.06
2016-10-18T00:06:43.225Z,27.03
2016-10-18T00:07:56.743Z,27.03
2016-10-18T00:09:10.532Z,27
2016-10-18T00:10:24.044Z,27.02
2016-10-18T00:11:37.105Z,27.06
2016-10-18T00:12:50.632Z,27.09
2016-10-18T00:14:04.176Z,27.07
2016-10-18T00:15:17.248Z,27.13
2016-10-18T00:16:30.903Z,27.07
2016-10-18T00:17:44.107Z,27.09
2016-10-18T00:18:57.748Z,27.18
2016-10-18T00:20:11.278Z,27.04
2016-10-18T00:21:24.870Z,27.13
2016-10-18T00:22:37.379Z,27.03
2016-10-18T00:23:50.959Z,27.12
2016-10-18T00:25:04.678Z,27.07
2016-10-18T00:26:17.814Z,27.18
2016-10-18T00:27:30.873Z,27.17
2016-10-18T00:28:44.470Z,27.17
2016-10-18T00:29:57.446Z,27.13
2016-10-18T00:31:10.719Z,27.21
2016-10-18T00:32:23.745Z,27.22
2016-10-18T00:33:37.263Z,27.19
2016-10-18T00:34:50.836Z,27.27
2016-10-18T00:36:03.881Z,27.17
2016-10-18T00:37:17.428Z,27.17
2016-10-18T00:38:30.494Z,27.13
2016-10-18T00:39:44.223Z,27.17
2016-10-18T00:40:57.862Z,27.19
2016-10-18T00:42:11.469Z,27.19
2016-10-18T00:43:24.530Z,27.13
2016-10-18T00:44:38.083Z,27.02
2016-10-18T00:45:51.700Z,26.92
2016-10-18T00:47:04.769Z,26.82
2016-10-18T00:48:18.469Z,26.67
2016-10-18T00:49:32.043Z,26.69
2016-10-18T00:50:45.634Z,26.55
2016-10-18T00:51:58.102Z,26.6
2016-10-18T00:53:11.644Z,26.57
2016-10-18T00:54:25.157Z,26.52
2016-10-18T00:55:38.698Z,26.44
2016-10-18T00:56:52.269Z,26.44
2016-10-18T00:58:05.874Z,26.37
2016-10-18T00:59:19.439Z,26.17
2016-10-18T01:00:33.037Z,26.23
2016-10-18T01:01:46.683Z,26.23
2016-10-18T01:03:00.243Z,26.12
2016-10-18T01:04:13.799Z,26.15
2016-10-18T01:05:27.362Z,26.13
2016-10-18T01:06:41.099Z,25.99
2016-10-18T01:07:54.638Z,26.2
2016-10-18T01:09:07.739Z,26.12
2016-10-18T01:10:21.477Z,26.2
2016-10-18T01:11:35.016Z,26.09
2016-10-18T01:12:48.622Z,26.1
2016-10-18T01:14:02.188Z,26.18
2016-10-18T01:15:15.809Z,26.07
2016-10-18T01:16:28.860Z,26.02
2016-10-18T01:17:42.178Z,25.94
2016-10-18T01:18:55.725Z,26.02
2016-10-18T01:20:09.283Z,25.9
2016-10-18T01:21:22.893Z,25.87
2016-10-18T01:22:36.413Z,25.91
2016-10-18T01:23:49.423Z,25.76
2016-10-18T01:25:03.040Z,25.61
2016-10-18T01:26:16.529Z,25.69
2016-10-18T01:27:29.592Z,25.62
2016-10-18T01:28:43.125Z,25.52
2016-10-18T01:29:56.683Z,25.47
2016-10-18T01:31:09.804Z,25.42
2016-10-18T01:32:23.343Z,25.55
2016-10-18T01:33:36.896Z,25.43
2016-10-18T01:34:50.414Z,25.5
2016-10-18T01:36:02.982Z,25.51
2016-10-18T01:37:16.501Z,25.3
2016-10-18T01:38:30.211Z,25.35
2016-10-18T01:39:43.308Z,25.27
2016-10-18T01:40:56.349Z,25.23
2016-10-18T01:42:09.674Z,25.32
2016-10-18T01:43:22.210Z,25.33
2016-10-18T01:44:35.782Z,25.3
2016-10-18T01:45:49.032Z,25.35
2016-10-18T01:47:02.587Z,25.4
2016-10-18T01:48:16.235Z,25.27
2016-10-18T01:49:28.816Z,25.21
2016-10-18T01:50:42.441Z,25.18
2016-10-18T01:51:55.990Z,24.95
2016-10-18T01:53:09.540Z,24.87
2016-10-18T01:54:23.078Z,24.88
2016-10-18T01:55:36.124Z,24.9
2016-10-18T01:56:48.608Z,24.83
2016-10-18T01:58:02.142Z,24.78
2016-10-18T01:59:15.744Z,24.62
2016-10-18T02:00:29.498Z,24.78
2016-10-18T02:01:43.082Z,24.8
2016-10-18T02:02:56.611Z,24.62
2016-10-18T02:04:09.667Z,24.62
2016-10-18T02:05:23.228Z,24.64
2016-10-18T02:06:36.828Z,24.62
2016-10-18T02:07:49.909Z,24.77
2016-10-18T02:09:03.437Z,24.84
2016-10-18T02:10:17.022Z,24.87
2016-10-18T02:11:30.037Z,24.62
2016-10-18T02:12:43.570Z,24.57
2016-10-18T02:13:56.335Z,24.57
2016-10-18T02:15:09.874Z,24.55
2016-10-18T02:16:23.433Z,24.37
2016-10-18T02:17:36.975Z,24.25
2016-10-18T02:18:50.058Z,24.31
2016-10-18T02:20:03.639Z,24.35
2016-10-18T02:21:17.165Z,24.43
2016-10-18T02:22:30.726Z,24.25
2016-10-18T02:23:44.387Z,24.18
2016-10-18T02:24:57.957Z,24.15
2016-10-18T02:26:11.331Z,24.15
2016-10-18T02:27:24.313Z,24.16
2016-10-18T02:28:37.886Z,24.13
2016-10-18T02:29:51.215Z,24.06
2016-10-18T02:31:04.281Z,24.16
2016-10-18T02:32:17.890Z,24.13
2016-10-18T02:33:30.910Z,24.08
2016-10-18T02:34:44.481Z,24.18
2016-10-18T02:35:57.992Z,24.21
2016-10-18T02:37:10.229Z,24.21
2016-10-18T02:38:23.084Z,24.21
2016-10-18T02:39:36.591Z,24.05
2016-10-18T02:40:49.620Z,24.09
2016-10-18T02:42:02.628Z,24.12
2016-10-18T02:43:16.194Z,24.12
2016-10-18T02:44:29.722Z,24.12
2016-10-18T02:45:43.320Z,24.08
2016-10-18T02:46:56.861Z,24.1
2016-10-18T02:48:10.475Z,24.03
2016-10-18T02:49:23.028Z,23.85
2016-10-18T02:50:36.608Z,23.83
2016-10-18T02:51:50.358Z,23.79
2016-10-18T02:53:03.939Z,23.85
2016-10-18T02:54:17.599Z,23.78
2016-10-18T02:55:31.186Z,23.84
2016-10-18T02:56:44.721Z,23.69
2016-10-18T02:57:58.257Z,23.87
2016-10-18T02:59:11.581Z,23.75
2016-10-18T03:00:25.108Z,23.7
2016-10-18T03:03:22.815Z,23.85
2016-10-18T03:04:36.448Z,23.76
2016-10-18T03:05:49.992Z,23.76
2016-10-18T03:07:03.009Z,23.84
2016-10-18T03:08:16.587Z,23.87
2016-10-18T03:09:30.160Z,23.85
2016-10-18T03:10:43.139Z,23.78
2016-10-18T03:11:56.742Z,23.76
2016-10-18T03:13:10.397Z,23.87
2016-10-18T03:14:23.946Z,23.83
2016-10-18T03:15:37.030Z,23.87
2016-10-18T03:16:50.541Z,23.84
2016-10-18T03:18:04.068Z,23.83
2016-10-18T03:19:17.655Z,23.84
2016-10-18T03:20:31.239Z,23.73
2016-10-18T03:21:44.836Z,23.63
2016-10-18T03:22:58.392Z,23.58
2016-10-18T03:24:11.550Z,23.46
2016-10-18T03:25:25.185Z,23.48
2016-10-18T03:26:38.481Z,23.48
2016-10-18T03:27:52.131Z,23.42
2016-10-18T03:29:05.741Z,23.51
2016-10-18T03:30:18.768Z,23.58
2016-10-18T03:31:32.370Z,23.54
2016-10-18T03:32:45.852Z,23.51
2016-10-18T03:33:59.444Z,23.58
2016-10-18T03:35:13.022Z,23.58
2016-10-18T03:36:26.670Z,23.6
2016-10-18T03:37:39.778Z,23.47
2016-10-18T03:38:53.308Z,23.38
2016-10-18T03:40:06.937Z,23.35
2016-10-18T03:41:20.527Z,23.35
2016-10-18T03:42:34.070Z,23.31
2016-10-18T03:43:47.642Z,23.28
2016-10-18T03:45:01.209Z,23.35
2016-10-18T03:46:14.841Z,23.25
2016-10-18T03:47:28.382Z,23.33
2016-10-18T03:48:41.964Z,23.2
2016-10-18T03:49:55.520Z,23.31
2016-10-18T03:51:09.121Z,23.22
2016-10-18T03:52:22.362Z,23.28
2016-10-18T03:53:35.942Z,23.23
2016-10-18T03:54:49.490Z,23.2
2016-10-18T03:56:02.985Z,23.1
2016-10-18T03:57:15.979Z,23.17
2016-10-18T03:58:29.531Z,23.28
2016-10-18T03:59:43.158Z,23.35
2016-10-18T04:00:56.728Z,23.46
2016-10-18T04:02:09.743Z,23.46
2016-10-18T04:03:23.275Z,23.28
2016-10-18T04:04:36.283Z,23.27
2016-10-18T04:05:49.302Z,23.32
2016-10-18T04:07:02.880Z,23.27
2016-10-18T04:08:15.410Z,23.28
2016-10-18T04:09:28.996Z,23.36
2016-10-18T04:10:42.557Z,23.33
2016-10-18T04:11:56.069Z,23.32
2016-10-18T04:13:09.076Z,23.2
2016-10-18T04:14:22.088Z,23.2
2016-10-18T04:15:35.215Z,23.15
2016-10-18T04:16:48.201Z,23.17
2016-10-18T04:18:01.785Z,23.22
2016-10-18T04:19:15.374Z,23.17
2016-10-18T04:20:28.897Z,23.22
2016-10-18T04:21:42.496Z,23.22
2016-10-18T04:22:55.859Z,23.15
2016-10-18T04:24:09.450Z,23.28
2016-10-18T04:25:23.032Z,23.23
2016-10-18T04:26:36.619Z,23.13
2016-10-18T04:27:49.679Z,23.1
2016-10-18T04:29:03.151Z,23.2
2016-10-18T04:30:16.729Z,23.13
2016-10-18T04:31:30.333Z,23
2016-10-18T04:32:43.919Z,22.95
2016-10-18T04:33:57.480Z,23.12
2016-10-18T04:35:11.322Z,23.17
2016-10-18T04:36:24.888Z,23.13
2016-10-18T04:37:38.417Z,23.25
2016-10-18T04:38:52.041Z,23.25
2016-10-18T04:40:05.549Z,23.16
2016-10-18T04:41:18.509Z,23.12
2016-10-18T04:42:31.569Z,23.09
2016-10-18T04:43:45.061Z,22.97
2016-10-18T04:44:58.588Z,23.1
2016-10-18T04:46:11.668Z,23.09
2016-10-18T04:47:25.278Z,23.02
2016-10-18T04:48:38.801Z,22.95
2016-10-18T04:49:51.810Z,23.07
2016-10-18T04:51:05.355Z,23
2016-10-18T04:52:18.600Z,23.09
2016-10-18T04:53:31.677Z,23.15
2016-10-18T04:54:45.204Z,23.07
2016-10-18T04:55:58.235Z,23.13
2016-10-18T04:57:11.343Z,23.12
2016-10-18T04:58:24.967Z,23.16
2016-10-18T04:59:37.986Z,23.1
2016-10-18T05:00:51.875Z,23.17
2016-10-18T05:02:04.316Z,23.1
2016-10-18T05:03:17.410Z,23.1
2016-10-18T05:04:30.470Z,23.01
2016-10-18T05:05:43.732Z,22.95
2016-10-18T05:06:56.199Z,22.91
2016-10-18T05:08:09.847Z,22.95
2016-10-18T05:09:23.419Z,23
2016-10-18T05:10:36.971Z,23.07
2016-10-18T05:11:49.991Z,23.01
2016-10-18T05:13:03.622Z,23.09
2016-10-18T05:14:17.316Z,23.07
2016-10-18T05:15:30.367Z,23.07
2016-10-18T05:16:43.912Z,23
2016-10-18T05:17:57.487Z,22.95
2016-10-18T05:19:10.480Z,22.88
2016-10-18T05:20:23.513Z,22.92
2016-10-18T05:21:37.045Z,22.95
2016-10-18T05:22:50.610Z,22.98
2016-10-18T05:24:03.676Z,23.07
2016-10-18T05:25:16.941Z,23.01
2016-10-18T05:26:30.571Z,23.02
2016-10-18T05:27:44.283Z,23
2016-10-18T05:28:57.798Z,22.98
2016-10-18T05:30:11.422Z,22.9
2016-10-18T05:31:24.991Z,23
2016-10-18T05:32:38.010Z,22.97
2016-10-18T05:33:51.804Z,23.02
2016-10-18T05:35:05.119Z,23.15
2016-10-18T05:36:18.255Z,23.05
2016-10-18T05:37:31.750Z,23.12
2016-10-18T05:38:44.749Z,23.23
2016-10-18T05:39:58.331Z,23.35
2016-10-18T05:41:11.356Z,23.33
2016-10-18T05:42:23.921Z,23.22
2016-10-18T05:43:37.495Z,23.13
2016-10-18T05:44:51.062Z,23.12
2016-10-18T05:46:04.046Z,23.16
2016-10-18T05:47:17.536Z,23.16
2016-10-18T05:48:31.155Z,23.16
2016-10-18T05:49:44.769Z,23.19
2016-10-18T05:50:58.062Z,23.12
2016-10-18T05:52:11.580Z,22.98
2016-10-18T05:53:25.113Z,23.04
2016-10-18T05:54:38.388Z,23.09
2016-10-18T05:55:50.884Z,23.05
2016-10-18T05:57:03.864Z,23.16
2016-10-18T05:58:17.640Z,23.22
2016-10-18T05:59:31.185Z,23.09
2016-10-18T06:00:44.703Z,23.2
2016-10-18T06:01:58.247Z,23.19
2016-10-18T06:03:11.410Z,23.16
2016-10-18T06:04:24.982Z,23.36
2016-10-18T06:05:38.595Z,23.19
2016-10-18T06:06:52.200Z,23.33
2016-10-18T06:08:05.280Z,23.35
2016-10-18T06:09:18.811Z,23.32
2016-10-18T06:10:31.868Z,23.33
2016-10-18T06:11:45.442Z,23.22
2016-10-18T06:12:58.757Z,23.17
2016-10-18T06:14:12.308Z,23.2
2016-10-18T06:15:25.318Z,23.19
2016-10-18T06:16:38.355Z,23.13
2016-10-18T06:17:51.903Z,23.09
2016-10-18T06:19:05.463Z,23.17
2016-10-18T06:20:18.562Z,23.07
2016-10-18T06:21:32.077Z,23.15
2016-10-18T06:22:44.504Z,23.1
2016-10-18T06:23:57.524Z,23.2
2016-10-18T06:25:10.574Z,23.2
2016-10-18T06:26:24.145Z,23.13
2016-10-18T06:27:37.199Z,23.17
2016-10-18T06:28:50.799Z,23.25
2016-10-18T06:30:04.418Z,23.16
2016-10-18T06:31:17.448Z,23.33
2016-10-18T06:32:31.036Z,23.16
2016-10-18T06:33:44.640Z,23.31
2016-10-18T06:34:58.159Z,23.25
2016-10-18T06:36:11.732Z,23.33
2016-10-18T06:37:24.486Z,23.31
2016-10-18T06:38:38.548Z,23.22
2016-10-18T06:39:52.137Z,23.09
2016-10-18T06:41:05.748Z,23
2016-10-18T06:42:18.798Z,23.01
2016-10-18T06:43:32.387Z,23.07
2016-10-18T06:44:46.022Z,23.22
2016-10-18T06:45:59.557Z,23.07
2016-10-18T06:47:13.067Z,22.97
2016-10-18T06:48:26.638Z,22.9
2016-10-18T06:49:39.658Z,22.92
2016-10-18T06:50:53.208Z,22.98
2016-10-18T06:52:06.818Z,22.94
2016-10-18T06:53:20.489Z,22.91
2016-10-18T06:54:34.032Z,22.92
2016-10-18T06:55:47.140Z,23.09
2016-10-18T06:57:00.725Z,23
2016-10-18T06:58:14.447Z,23.1
2016-10-18T06:59:27.495Z,23.07
2016-10-18T07:00:41.085Z,23.22
2016-10-18T07:01:54.889Z,23.16
2016-10-18T07:03:08.243Z,23.25
2016-10-18T07:04:21.817Z,23.2
2016-10-18T07:05:34.836Z,23.17
2016-10-18T07:06:47.888Z,23.15
2016-10-18T07:08:00.364Z,23.22
2016-10-18T07:09:13.875Z,23.25
2016-10-18T07:10:27.463Z,23.36
2016-10-18T07:11:41.044Z,23.35
2016-10-18T07:12:54.526Z,23.32
2016-10-18T07:14:07.611Z,23.35
2016-10-18T07:15:20.599Z,23.32
2016-10-18T07:16:34.181Z,23.32
2016-10-18T07:17:47.362Z,23.32
2016-10-18T07:19:01.306Z,23.23
2016-10-18T07:20:14.844Z,23.39
2016-10-18T07:21:28.359Z,23.28
2016-10-18T07:22:41.720Z,23.28
2016-10-18T07:23:55.302Z,23.31
2016-10-18T07:25:08.831Z,23.35
2016-10-18T07:26:22.461Z,23.38
2016-10-18T07:27:35.706Z,23.48
2016-10-18T07:28:49.239Z,23.54
2016-10-18T07:30:02.224Z,23.47
2016-10-18T07:31:15.481Z,23.46
2016-10-18T07:32:28.534Z,23.38
2016-10-18T07:33:42.049Z,23.36
2016-10-18T07:34:55.128Z,23.36
2016-10-18T07:36:08.624Z,23.38
2016-10-18T07:37:22.200Z,23.4
2016-10-18T07:38:35.289Z,23.42
2016-10-18T07:39:48.910Z,23.38
2016-10-18T07:41:02.422Z,23.5
2016-10-18T07:42:16.040Z,23.48
2016-10-18T07:43:29.294Z,23.4
2016-10-18T07:44:42.888Z,23.48
2016-10-18T07:45:55.846Z,23.43
2016-10-18T07:47:09.434Z,23.4
2016-10-18T07:48:23.043Z,23.42
2016-10-18T07:49:36.557Z,23.38
2016-10-18T07:50:50.180Z,23.36
2016-10-18T07:52:03.210Z,23.38
2016-10-18T07:53:16.454Z,23.36
2016-10-18T07:54:30.019Z,23.42
2016-10-18T07:55:43.043Z,23.4
2016-10-18T07:56:56.063Z,23.36
2016-10-18T07:58:09.109Z,23.36
2016-10-18T07:59:22.690Z,23.35
2016-10-18T08:00:36.241Z,23.28
2016-10-18T08:01:49.232Z,23.22
2016-10-18T08:03:02.256Z,23.31
2016-10-18T08:04:15.848Z,23.36
2016-10-18T08:05:29.429Z,23.4
2016-10-18T08:06:42.520Z,23.39
2016-10-18T08:07:56.086Z,23.38
2016-10-18T08:09:09.165Z,23.38
2016-10-18T08:10:22.717Z,23.33
2016-10-18T08:11:35.695Z,23.38
2016-10-18T08:12:49.278Z,23.38
2016-10-18T08:14:02.287Z,23.31
2016-10-18T08:15:15.920Z,23.36
2016-10-18T08:16:29.515Z,23.31
2016-10-18T08:17:43.129Z,23.17
2016-10-18T08:18:56.192Z,23.19
2016-10-18T08:20:09.752Z,23.13
2016-10-18T08:21:22.872Z,23.09
2016-10-18T08:22:36.529Z,23.1
2016-10-18T08:23:50.063Z,22.92
2016-10-18T08:25:34.726Z,22.72
2016-10-18T08:26:48.309Z,22.55
2016-10-18T08:28:01.835Z,22.73
2016-10-18T08:29:14.905Z,22.7
2016-10-18T08:30:28.448Z,22.76
2016-10-18T08:31:41.997Z,22.82
2016-10-18T08:32:55.551Z,22.82
2016-10-18T08:34:39.912Z,22.88
2016-10-18T08:35:53.445Z,22.82
2016-10-18T08:37:06.511Z,22.88
2016-10-18T08:38:20.021Z,22.97
2016-10-18T08:39:33.086Z,23
2016-10-18T08:40:46.702Z,23.05
2016-10-18T08:42:00.301Z,22.95
2016-10-18T08:43:13.425Z,23.05
2016-10-18T08:44:26.988Z,23.09
2016-10-18T08:45:40.576Z,22.86
2016-10-18T08:46:54.136Z,22.85
2016-10-18T08:48:07.690Z,22.9
2016-10-18T08:49:21.271Z,22.82
2016-10-18T08:50:34.928Z,22.67
2016-10-18T08:51:48.283Z,22.65
2016-10-18T08:53:01.795Z,22.73
2016-10-18T08:54:15.422Z,22.6
2016-10-18T08:55:28.434Z,22.62
2016-10-18T08:56:41.551Z,22.49
2016-10-18T08:57:54.836Z,22.64
2016-10-18T08:59:08.442Z,22.61
2016-10-18T09:00:22.016Z,22.54
2016-10-18T09:01:35.544Z,22.62
2016-10-18T09:02:49.119Z,22.47
2016-10-18T09:04:02.714Z,22.51
2016-10-18T09:05:16.334Z,22.49
2016-10-18T09:06:29.901Z,22.58
2016-10-18T09:07:43.518Z,22.64
2016-10-18T09:08:57.047Z,22.6
2016-10-18T09:10:10.076Z,22.47
2016-10-18T09:11:23.637Z,22.6
2016-10-18T09:12:36.658Z,22.61
2016-10-18T09:13:50.187Z,22.6
2016-10-18T09:15:03.501Z,22.72
2016-10-18T09:16:17.109Z,22.61
2016-10-18T09:17:30.706Z,22.67
2016-10-18T09:18:44.609Z,22.45
2016-10-18T09:19:58.386Z,22.6
2016-10-18T09:21:11.455Z,22.55
2016-10-18T09:22:25.072Z,22.67
2016-10-18T09:23:38.145Z,22.68
2016-10-18T09:24:51.881Z,22.62
2016-10-18T09:26:05.512Z,22.64
2016-10-18T09:27:18.040Z,22.68
2016-10-18T09:28:31.569Z,22.77
2016-10-18T09:29:45.166Z,22.79
2016-10-18T09:30:58.709Z,22.86
2016-10-18T09:32:12.290Z,22.88
2016-10-18T09:33:25.987Z,22.92
2016-10-18T09:34:39.245Z,22.86
2016-10-18T09:35:52.289Z,22.88
2016-10-18T09:37:05.903Z,22.85
2016-10-18T09:38:18.978Z,22.92
2016-10-18T09:39:32.598Z,22.97
2016-10-18T09:40:45.649Z,22.85
2016-10-18T09:41:58.785Z,22.94
2016-10-18T09:43:12.415Z,23
2016-10-18T09:44:25.416Z,23.02
2016-10-18T09:45:38.916Z,22.97
2016-10-18T09:46:52.461Z,23
2016-10-18T09:48:05.506Z,22.94
2016-10-18T09:49:19.010Z,23
2016-10-18T09:50:32.549Z,23.02
2016-10-18T09:51:45.044Z,22.88
2016-10-18T09:52:58.621Z,22.97
2016-10-18T09:54:12.165Z,22.97
2016-10-18T09:55:25.210Z,23.1
2016-10-18T09:56:38.233Z,22.95
2016-10-18T09:57:51.677Z,22.77
2016-10-18T09:59:05.258Z,22.9
2016-10-18T10:00:18.831Z,22.9
2016-10-18T10:01:32.351Z,22.95
2016-10-18T10:02:45.960Z,22.88
2016-10-18T10:03:58.932Z,22.88
2016-10-18T10:05:12.548Z,22.98
2016-10-18T10:06:26.079Z,23
2016-10-18T10:07:39.141Z,23.09
2016-10-18T10:08:52.692Z,23.09
2016-10-18T10:10:06.315Z,22.97
2016-10-18T10:11:19.368Z,23.02
2016-10-18T10:12:32.891Z,23.1
2016-10-18T10:13:45.604Z,23.02
2016-10-18T10:14:59.204Z,23
2016-10-18T10:16:12.803Z,23.15
2016-10-18T10:17:25.892Z,23.12
2016-10-18T10:18:38.912Z,23.17
2016-10-18T10:19:51.968Z,23.16
2016-10-18T10:21:04.496Z,22.98
2016-10-18T10:22:18.029Z,23.13
2016-10-18T10:23:29.966Z,23.17
2016-10-18T10:24:43.540Z,23.2
2016-10-18T10:25:57.136Z,23.33
2016-10-18T10:27:10.687Z,23.33
2016-10-18T10:28:24.498Z,23.39
2016-10-18T10:29:37.709Z,23.12
2016-10-18T10:30:50.777Z,23.23
2016-10-18T10:32:03.778Z,23.33
2016-10-18T10:33:17.300Z,23.32
2016-10-18T10:34:30.862Z,23.28
2016-10-18T10:35:43.850Z,23.25
2016-10-18T10:36:57.389Z,23.12
2016-10-18T10:38:10.960Z,23.23
2016-10-18T10:39:24.545Z,23.17
2016-10-18T10:40:38.454Z,23.19
2016-10-18T10:41:52.005Z,23.07
2016-10-18T10:43:05.018Z,23.23
2016-10-18T10:44:18.604Z,23.33
2016-10-18T10:45:31.604Z,23.25
2016-10-18T10:46:44.902Z,23.35
2016-10-18T10:47:57.934Z,23.33
2016-10-18T10:49:11.501Z,23.38
2016-10-18T10:50:24.765Z,23.35
2016-10-18T10:51:38.256Z,23.4
2016-10-18T10:52:52.083Z,23.5
2016-10-18T10:54:05.102Z,23.5
2016-10-18T10:55:18.860Z,23.5
2016-10-18T10:56:32.433Z,23.5
2016-10-18T10:57:45.445Z,23.54
2016-10-18T10:58:59.005Z,23.69
2016-10-18T11:00:12.836Z,23.72
2016-10-18T11:01:26.359Z,23.8
2016-10-18T11:02:39.967Z,23.8
2016-10-18T11:03:53.486Z,23.87
2016-10-18T11:05:07.024Z,23.98
2016-10-18T11:06:20.806Z,24.02
2016-10-18T11:07:33.846Z,23.98
2016-10-18T11:08:47.720Z,24.08
2016-10-18T11:10:01.306Z,24.09
2016-10-18T11:11:14.864Z,24.12
2016-10-18T11:12:28.236Z,24.22
2016-10-18T11:13:41.572Z,24.22
2016-10-18T11:14:55.077Z,24.22
2016-10-18T11:16:08.573Z,24.24
2016-10-18T11:17:21.604Z,24.35
2016-10-18T11:18:35.091Z,24.5
2016-10-18T11:19:48.963Z,24.52
2016-10-18T11:21:01.716Z,24.6
2016-10-18T11:22:15.273Z,24.53
2016-10-18T11:23:28.805Z,24.64
2016-10-18T11:24:42.157Z,24.85
2016-10-18T11:25:55.807Z,24.96
2016-10-18T11:27:09.346Z,25.05
2016-10-18T11:28:22.847Z,25.09
2016-10-18T11:29:36.431Z,25.23
2016-10-18T11:30:50.004Z,25.42
2016-10-18T11:32:03.568Z,25.32
2016-10-18T11:33:17.061Z,25.47
2016-10-18T11:34:29.537Z,25.52
2016-10-18T11:35:43.081Z,25.65
2016-10-18T11:36:56.622Z,25.73
2016-10-18T11:38:10.120Z,25.75
2016-10-18T11:39:23.677Z,25.72
2016-10-18T11:40:37.324Z,25.75
2016-10-18T11:41:50.823Z,25.73
2016-10-18T11:43:03.883Z,25.85
2016-10-18T11:44:17.622Z,25.97
2016-10-18T11:45:31.260Z,26.05
2016-10-18T11:46:44.840Z,26.23
2016-10-18T11:47:57.630Z,26.43
2016-10-18T11:49:10.076Z,26.5
2016-10-18T11:50:22.602Z,26.75
2016-10-18T11:51:35.116Z,26.72
2016-10-18T11:52:48.961Z,26.75
2016-10-18T11:54:02.645Z,26.88
2016-10-18T11:55:16.229Z,26.99
2016-10-18T11:56:29.764Z,26.87
2016-10-18T11:57:43.286Z,27.06
2016-10-18T11:58:56.835Z,27.21
2016-10-18T12:00:11.094Z,27.31
2016-10-18T12:01:24.231Z,27.27
2016-10-18T12:02:37.795Z,27.25
2016-10-18T12:03:50.839Z,27.46
2016-10-18T12:05:04.358Z,27.49
2016-10-18T12:06:17.953Z,27.57
2016-10-18T12:07:31.464Z,27.75
2016-10-18T12:08:44.943Z,27.82
2016-10-18T12:09:58.606Z,27.94
2016-10-18T12:11:11.711Z,28.12
2016-10-18T12:12:25.333Z,28.19
2016-10-18T12:13:38.926Z,28.24
2016-10-18T12:14:52.460Z,28.31
2016-10-18T12:16:06.064Z,28.55
2016-10-18T12:17:19.607Z,28.58
2016-10-18T12:18:33.155Z,28.67
2016-10-18T12:19:46.712Z,28.74
2016-10-18T12:21:00.266Z,28.81
2016-10-18T12:22:13.335Z,28.98
2016-10-18T12:23:26.370Z,29.24
2016-10-18T12:24:39.974Z,29.27
2016-10-18T12:25:53.053Z,29.36
2016-10-18T12:27:06.142Z,29.43
2016-10-18T12:28:19.780Z,29.49
2016-10-18T12:29:33.390Z,29.57
2016-10-18T12:30:46.905Z,29.73
2016-10-18T12:32:00.539Z,29.85
2016-10-18T12:33:14.193Z,29.82
2016-10-18T12:34:27.492Z,29.92
2016-10-18T12:35:41.071Z,29.94
2016-10-18T12:36:54.724Z,29.95
2016-10-18T12:38:08.285Z,29.97
2016-10-18T12:39:22.043Z,30.05
2016-10-18T12:40:35.091Z,30.07
2016-10-18T12:41:48.180Z,30.22
2016-10-18T12:43:01.302Z,30.17
2016-10-18T12:44:14.816Z,30.42
2016-10-18T12:45:27.890Z,30.43
2016-10-18T12:46:41.682Z,30.61
2016-10-18T12:47:54.664Z,30.64
2016-10-18T12:49:07.172Z,30.53
2016-10-18T12:50:20.166Z,30.54
2016-10-18T12:51:33.698Z,30.49
2016-10-18T12:52:47.282Z,30.57
2016-10-18T12:54:00.892Z,30.72
2016-10-18T12:55:13.930Z,30.86
2016-10-18T12:56:26.368Z,30.97
2016-10-18T12:57:39.910Z,31.02
2016-10-18T12:58:53.402Z,31.16
2016-10-18T13:00:07.010Z,31.2
2016-10-18T13:01:20.771Z,31.23
2016-10-18T13:02:34.330Z,31.13
2016-10-18T13:03:47.886Z,31.28
2016-10-18T13:05:01.398Z,31.29
2016-10-18T13:06:13.915Z,31.54
2016-10-18T13:07:27.554Z,31.53
2016-10-18T13:08:40.413Z,31.53
2016-10-18T13:09:53.975Z,31.48
2016-10-18T13:11:07.008Z,31.28
2016-10-18T13:12:20.901Z,31.5
2016-10-18T13:13:33.168Z,31.8
2016-10-18T13:14:46.200Z,32.14
2016-10-18T13:15:59.180Z,32.14
2016-10-18T13:17:12.199Z,32.23
2016-10-18T13:18:25.150Z,32.26
2016-10-18T13:19:38.768Z,32.33
2016-10-18T13:20:52.099Z,32.35
2016-10-18T13:22:05.646Z,32.43
2016-10-18T13:23:19.256Z,32.28
2016-10-18T13:24:32.863Z,32.6
2016-10-18T13:25:45.875Z,32.92
2016-10-18T13:26:58.370Z,33.03
2016-10-18T13:28:11.892Z,32.97
2016-10-18T13:29:25.464Z,33.01
2016-10-18T13:30:38.452Z,33.03
2016-10-18T13:31:52.039Z,32.93
2016-10-18T13:33:05.538Z,33.03
2016-10-18T13:34:18.768Z,33.04
2016-10-18T13:35:32.317Z,33.22
2016-10-18T13:36:45.864Z,33.42
2016-10-18T13:37:58.889Z,33.53
2016-10-18T13:39:12.512Z,33.86
2016-10-18T13:40:26.147Z,33.76
2016-10-18T13:41:39.671Z,33.69
2016-10-18T13:42:53.261Z,33.78
2016-10-18T13:44:06.854Z,34.09
2016-10-18T13:45:20.460Z,34.3
2016-10-18T13:46:33.544Z,34.62
2016-10-18T13:47:46.001Z,34.65
2016-10-18T13:48:59.072Z,34.77
2016-10-18T13:50:12.623Z,34.89
2016-10-18T13:51:26.230Z,35
2016-10-18T13:52:39.835Z,35.15
2016-10-18T13:53:53.407Z,34.72
2016-10-18T13:55:07.053Z,34.75
2016-10-18T13:56:20.402Z,35.53
2016-10-18T13:57:33.427Z,35.47
2016-10-18T13:58:46.976Z,35.53
2016-10-18T14:00:00.511Z,35.4
2016-10-18T14:01:14.739Z,35.75
2016-10-18T14:02:28.416Z,36.12
2016-10-18T14:03:41.979Z,36.53
2016-10-18T14:04:55.498Z,36.39
2016-10-18T14:06:09.159Z,36.57
2016-10-18T14:07:22.304Z,36.46
2016-10-18T14:08:35.868Z,36.37
2016-10-18T14:09:49.477Z,36.85
2016-10-18T14:11:03.039Z,36.73
2016-10-18T14:12:16.570Z,37.27
2016-10-18T14:13:30.099Z,37.6
2016-10-18T14:14:43.708Z,38
2016-10-18T14:15:57.296Z,37.62
2016-10-18T14:17:09.875Z,37.67
2016-10-18T14:18:23.396Z,37.88
2016-10-18T14:19:36.938Z,37.85
2016-10-18T14:20:50.484Z,37.93
2016-10-18T14:22:04.040Z,37.97
2016-10-18T14:23:17.759Z,38.32
2016-10-18T14:24:30.814Z,38.71
2016-10-18T14:25:44.366Z,38.91
2016-10-18T14:26:57.441Z,38.86
2016-10-18T14:28:10.564Z,38.95
2016-10-18T14:29:23.581Z,38.66
2016-10-18T14:30:37.237Z,38.66
2016-10-18T14:31:50.802Z,38.49
2016-10-18T14:33:04.465Z,38.19
2016-10-18T14:34:18.188Z,37.98
2016-10-18T14:35:31.699Z,37.64
2016-10-18T14:36:45.251Z,37.6
2016-10-18T14:37:58.840Z,37.4
2016-10-18T14:39:12.460Z,37.31
2016-10-18T14:40:25.227Z,36.98
2016-10-18T14:41:38.743Z,37.34
2016-10-18T14:42:52.521Z,37.36
2016-10-18T14:44:06.101Z,37.49
2016-10-18T14:45:19.656Z,37.06
2016-10-18T14:46:32.644Z,37.46
2016-10-18T14:47:45.680Z,37.79
2016-10-18T14:48:58.671Z,37.36
2016-10-18T14:50:12.175Z,36.39
2016-10-18T14:51:25.140Z,36.9
2016-10-18T14:52:38.181Z,36.98
2016-10-18T14:53:51.766Z,37.21
2016-10-18T14:55:05.328Z,37.56
2016-10-18T14:56:19.294Z,37.69
2016-10-18T14:57:32.901Z,37.56
2016-10-18T14:58:46.464Z,37.82
2016-10-18T15:00:00.048Z,38.37
2016-10-18T15:01:13.722Z,38.57
2016-10-18T15:02:27.365Z,39.06
2016-10-18T15:03:41.002Z,39.06
2016-10-18T15:04:54.467Z,38.57
2016-10-18T15:06:08.092Z,38.93
2016-10-18T15:07:21.714Z,38.81
2016-10-18T15:08:35.339Z,38.65
2016-10-18T15:09:49.308Z,38.83
2016-10-18T15:11:02.875Z,38.57
2016-10-18T15:12:15.964Z,38.74
2016-10-18T15:13:29.062Z,38.68
2016-10-18T15:14:42.647Z,39.33
2016-10-18T15:15:56.453Z,39.3
2016-10-18T15:17:09.488Z,39.3
2016-10-18T15:18:23.041Z,39.64
2016-10-18T15:19:36.693Z,39.16
2016-10-18T15:20:50.233Z,38.76
2016-10-18T15:22:03.776Z,38.78
2016-10-18T15:23:16.882Z,38.37
2016-10-18T15:24:30.504Z,38.37
2016-10-18T15:25:44.063Z,38.18
2016-10-18T15:26:57.959Z,38.49
2016-10-18T15:28:11.473Z,38.91
2016-10-18T15:29:25.276Z,39.17
2016-10-18T15:30:38.858Z,39.66
2016-10-18T15:31:52.329Z,40.01
2016-10-18T15:33:05.889Z,39.97
2016-10-18T15:34:18.973Z,39.64
2016-10-18T15:35:32.284Z,38.87
2016-10-18T15:36:45.837Z,38.88
2016-10-18T15:37:59.512Z,38.68
2016-10-18T15:39:12.766Z,38.99
2016-10-18T15:40:25.779Z,38.46
2016-10-18T15:41:38.548Z,38.83
2016-10-18T15:42:51.540Z,38.78
2016-10-18T15:44:05.149Z,38.66
2016-10-18T15:45:18.159Z,38.96
2016-10-18T15:46:31.801Z,39.5
2016-10-18T15:47:44.925Z,39.78
2016-10-18T15:48:58.494Z,40.38
2016-10-18T15:50:11.002Z,40.48
2016-10-18T15:51:24.633Z,40.7
2016-10-18T15:52:37.646Z,40.94